AIC130 EGLL-VABB
Flight info
| Callsign | AIC130 |
|---|---|
| Flight time | N/A |
| Altitude | 35000 |
| Route | DET L6 DVR UL9 KONAN DCT KOK DCT KOMOB DCT PITES DCT BABEG DCT KUMOM DCT VEKEN DCT ELTIB DCT AKIKA DCT MAVAR DCT BITLA UN132 KEA UL607 GENDO/N0474F370 UL607 PAXIS L607 NABSI P557 OBRAN L321 REXUM M872 PMA Y214 NAGUB/N0482F390 Y214 RAPMA DCT MEVDO DCT ALROK DCT DEBIN DCT MIDGU M440 TULBU N881 AMBOS M700 PARAR N571 SUGID KETOR2A |
| Aircraft | B77L/H-SDE1E2E3FGHIJ2J3J4J5M1RWXY/LB1D1 |
Departure
| Time | 2026-05-06 19:25 |
|---|---|
| Airport | London Heathrow Airport (EGLL) |
Arrival
| Time | N/A |
|---|---|
| Airport | Chhatrapati Shivaji Maharaj International Airport (VABB) |
| Time | Latitude | Longitude | Altitude | Speed | Heading |
|---|---|---|---|---|---|
| 2026-05-06 18:51 | 51.47017 | -0.44406 | 91 ft | 0 kts | 90° |
| 2026-05-06 19:05 | 51.47017 | -0.44413 | 92 ft | 1 kts | 90° |
| 2026-05-06 19:05 | 51.47017 | -0.44438 | 97 ft | 2 kts | 92° |
| 2026-05-06 19:05 | 51.47018 | -0.44465 | 92 ft | 2 kts | 95° |
| 2026-05-06 19:05 | 51.47020 | -0.44491 | 94 ft | 2 kts | 99° |
| 2026-05-06 19:06 | 51.47024 | -0.44517 | 92 ft | 2 kts | 109° |
| 2026-05-06 19:06 | 51.47031 | -0.44542 | 92 ft | 2 kts | 130° |
| 2026-05-06 19:06 | 51.47044 | -0.44558 | 93 ft | 2 kts | 168° |
| 2026-05-06 19:06 | 51.47054 | -0.44560 | 92 ft | 1 kts | 178° |
| 2026-05-06 19:13 | 51.47023 | -0.44559 | 91 ft | 8 kts | 179° |
| 2026-05-06 19:13 | 51.46932 | -0.44556 | 91 ft | 20 kts | 179° |
| 2026-05-06 19:14 | 51.46793 | -0.44552 | 93 ft | 20 kts | 179° |
| 2026-05-06 19:14 | 51.46692 | -0.44568 | 94 ft | 11 kts | 212° |
| 2026-05-06 19:14 | 51.46665 | -0.44691 | 91 ft | 13 kts | 266° |
| 2026-05-06 19:14 | 51.46664 | -0.44785 | 92 ft | 13 kts | 270° |
| 2026-05-06 19:15 | 51.46663 | -0.45046 | 91 ft | 21 kts | 270° |
| 2026-05-06 19:15 | 51.46662 | -0.45282 | 91 ft | 22 kts | 270° |
| 2026-05-06 19:15 | 51.46662 | -0.45451 | 91 ft | 23 kts | 270° |
| 2026-05-06 19:15 | 51.46661 | -0.45795 | 91 ft | 24 kts | 270° |
| 2026-05-06 19:16 | 51.46661 | -0.46012 | 91 ft | 11 kts | 270° |
| 2026-05-06 19:16 | 51.46661 | -0.46099 | 91 ft | 12 kts | 269° |
| 2026-05-06 19:16 | 51.46659 | -0.46243 | 95 ft | 13 kts | 269° |
| 2026-05-06 19:16 | 51.46658 | -0.46413 | 95 ft | 17 kts | 269° |
| 2026-05-06 19:17 | 51.46657 | -0.46662 | 95 ft | 30 kts | 269° |
| 2026-05-06 19:17 | 51.46656 | -0.47011 | 94 ft | 31 kts | 270° |
| 2026-05-06 19:17 | 51.46654 | -0.47348 | 92 ft | 30 kts | 269° |
| 2026-05-06 19:17 | 51.46653 | -0.47663 | 91 ft | 23 kts | 270° |
| 2026-05-06 19:18 | 51.46653 | -0.47773 | 91 ft | 6 kts | 270° |
| 2026-05-06 19:18 | 51.46653 | -0.47842 | 91 ft | 6 kts | 269° |
| 2026-05-06 19:18 | 51.46653 | -0.47936 | 91 ft | 9 kts | 269° |
| 2026-05-06 19:18 | 51.46652 | -0.48030 | 91 ft | 8 kts | 270° |
| 2026-05-06 19:19 | 51.46652 | -0.48120 | 91 ft | 8 kts | 270° |
| 2026-05-06 19:19 | 51.46652 | -0.48260 | 91 ft | 16 kts | 269° |
| 2026-05-06 19:19 | 51.46651 | -0.48441 | 93 ft | 16 kts | 269° |
| 2026-05-06 19:19 | 51.46651 | -0.48615 | 91 ft | 8 kts | 270° |
| 2026-05-06 19:20 | 51.46646 | -0.48703 | 93 ft | 8 kts | 252° |
| 2026-05-06 19:20 | 51.46607 | -0.48761 | 95 ft | 8 kts | 206° |
| 2026-05-06 19:20 | 51.46605 | -0.48762 | 96 ft | 0 kts | 206° |
| 2026-05-06 19:22 | 51.46603 | -0.48764 | 96 ft | 4 kts | 206° |
| 2026-05-06 19:22 | 51.46531 | -0.48782 | 91 ft | 10 kts | 169° |
| 2026-05-06 19:23 | 51.46483 | -0.48704 | 96 ft | 10 kts | 108° |
| 2026-05-06 19:23 | 51.46478 | -0.48590 | 94 ft | 0 kts | 91° |
| 2026-05-06 19:23 | 51.46478 | -0.48587 | 94 ft | 3 kts | 91° |
| 2026-05-06 19:24 | 51.46479 | -0.48297 | 93 ft | 59 kts | 89° |
| 2026-05-06 19:24 | 51.46483 | -0.47252 | 94 ft | 127 kts | 89° |
| 2026-05-06 19:24 | 51.46499 | -0.45546 | 98 ft | 180 kts | 84° |
| 2026-05-06 19:24 | 51.46487 | -0.43436 | 539 ft | 192 kts | 91° |
| 2026-05-06 19:25 | 51.46319 | -0.41389 | 1270 ft | 193 kts | 102° |
| 2026-05-06 19:25 | 51.45647 | -0.39451 | 1414 ft | 218 kts | 141° |
| 2026-05-06 19:25 | 51.44312 | -0.37867 | 1544 ft | 254 kts | 128° |
| 2026-05-06 19:25 | 51.43509 | -0.35266 | 1983 ft | 279 kts | 99° |
| 2026-05-06 19:26 | 51.43258 | -0.32390 | 2005 ft | 264 kts | 97° |
| 2026-05-06 19:26 | 51.42847 | -0.29566 | 1993 ft | 254 kts | 103° |
| 2026-05-06 19:26 | 51.42405 | -0.26858 | 1995 ft | 251 kts | 98° |
| 2026-05-06 19:26 | 51.42096 | -0.24078 | 2378 ft | 255 kts | 97° |
| 2026-05-06 19:27 | 51.41766 | -0.21278 | 3111 ft | 257 kts | 99° |
| 2026-05-06 19:27 | 51.41403 | -0.18447 | 3697 ft | 263 kts | 100° |
| 2026-05-06 19:27 | 51.41020 | -0.15574 | 4437 ft | 263 kts | 101° |
| 2026-05-06 19:27 | 51.40629 | -0.12698 | 4951 ft | 266 kts | 102° |
| 2026-05-06 19:28 | 51.40226 | -0.09765 | 5252 ft | 271 kts | 102° |
| 2026-05-06 19:28 | 51.39821 | -0.06827 | 5869 ft | 269 kts | 102° |
| 2026-05-06 19:28 | 51.39418 | -0.03919 | 5973 ft | 274 kts | 102° |
| 2026-05-06 19:28 | 51.39007 | -0.00948 | 5978 ft | 273 kts | 102° |
| 2026-05-06 19:29 | 51.38597 | 0.02000 | 5966 ft | 270 kts | 102° |
| 2026-05-06 19:29 | 51.38189 | 0.04921 | 6020 ft | 268 kts | 102° |
| 2026-05-06 19:29 | 51.37782 | 0.07836 | 6407 ft | 268 kts | 102° |
| 2026-05-06 19:29 | 51.37308 | 0.10744 | 6912 ft | 272 kts | 114° |
| 2026-05-06 19:30 | 51.36318 | 0.13371 | 7343 ft | 279 kts | 126° |
| 2026-05-06 19:30 | 51.35176 | 0.15911 | 7955 ft | 282 kts | 126° |
| 2026-05-06 19:30 | 51.34016 | 0.18479 | 8510 ft | 288 kts | 126° |
| 2026-05-06 19:30 | 51.32829 | 0.21094 | 9094 ft | 292 kts | 126° |
| 2026-05-06 19:31 | 51.31630 | 0.23735 | 9721 ft | 294 kts | 126° |
| 2026-05-06 19:31 | 51.30421 | 0.26399 | 10274 ft | 298 kts | 126° |
| 2026-05-06 19:31 | 51.27839 | 0.32071 | 10645 ft | 336 kts | 126° |
| 2026-05-06 19:32 | 51.26424 | 0.35174 | 10829 ft | 356 kts | 126° |
| 2026-05-06 19:32 | 51.24928 | 0.38448 | 11062 ft | 374 kts | 126° |
| 2026-05-06 19:32 | 51.23397 | 0.41877 | 11597 ft | 380 kts | 122° |
| 2026-05-06 19:32 | 51.22238 | 0.45624 | 12224 ft | 387 kts | 109° |
| 2026-05-06 19:33 | 51.21550 | 0.49778 | 12985 ft | 390 kts | 100° |
| 2026-05-06 19:33 | 51.21122 | 0.54070 | 13766 ft | 394 kts | 97° |
| 2026-05-06 19:33 | 51.20757 | 0.58495 | 14444 ft | 398 kts | 96° |
| 2026-05-06 19:33 | 51.20420 | 0.62861 | 15110 ft | 403 kts | 96° |
| 2026-05-06 19:34 | 51.20081 | 0.67323 | 15792 ft | 407 kts | 96° |
| 2026-05-06 19:34 | 51.19743 | 0.71875 | 16460 ft | 411 kts | 96° |
| 2026-05-06 19:34 | 51.19408 | 0.76434 | 17120 ft | 415 kts | 96° |
| 2026-05-06 19:34 | 51.19082 | 0.80942 | 17747 ft | 420 kts | 96° |
| 2026-05-06 19:35 | 51.18747 | 0.85608 | 18398 ft | 424 kts | 96° |
| 2026-05-06 19:35 | 51.18413 | 0.90321 | 18958 ft | 428 kts | 96° |
| 2026-05-06 19:35 | 51.18080 | 0.95046 | 19524 ft | 431 kts | 96° |
| 2026-05-06 19:35 | 51.17748 | 0.99802 | 20088 ft | 434 kts | 96° |
| 2026-05-06 19:36 | 51.17414 | 1.04601 | 20649 ft | 438 kts | 96° |
| 2026-05-06 19:36 | 51.17079 | 1.09458 | 21192 ft | 441 kts | 96° |
| 2026-05-06 19:36 | 51.16744 | 1.14339 | 21741 ft | 445 kts | 96° |
| 2026-05-06 19:36 | 51.16408 | 1.19249 | 22289 ft | 448 kts | 96° |
| 2026-05-06 19:37 | 51.16070 | 1.24197 | 22812 ft | 451 kts | 96° |
| 2026-05-06 19:37 | 51.15729 | 1.29201 | 23340 ft | 455 kts | 96° |
| 2026-05-06 19:37 | 51.15391 | 1.34165 | 23804 ft | 458 kts | 96° |
| 2026-05-06 19:37 | 51.15045 | 1.39249 | 24250 ft | 461 kts | 96° |
| 2026-05-06 19:38 | 51.14698 | 1.44343 | 24712 ft | 463 kts | 96° |
| 2026-05-06 19:38 | 51.14350 | 1.49443 | 25158 ft | 466 kts | 96° |
| 2026-05-06 19:38 | 51.13998 | 1.54591 | 25583 ft | 468 kts | 96° |
| 2026-05-06 19:38 | 51.13642 | 1.59768 | 26007 ft | 471 kts | 96° |
| 2026-05-06 19:39 | 51.13283 | 1.64983 | 26438 ft | 474 kts | 96° |
| 2026-05-06 19:39 | 51.12922 | 1.70217 | 26837 ft | 477 kts | 96° |
| 2026-05-06 19:39 | 51.12559 | 1.75479 | 27246 ft | 479 kts | 96° |
| 2026-05-06 19:39 | 51.12193 | 1.80763 | 27649 ft | 482 kts | 96° |
| 2026-05-06 19:40 | 51.11830 | 1.86021 | 28037 ft | 485 kts | 96° |
| 2026-05-06 19:40 | 51.11462 | 1.91351 | 28407 ft | 487 kts | 96° |
| 2026-05-06 19:40 | 51.11091 | 1.96721 | 28784 ft | 490 kts | 96° |
| 2026-05-06 19:40 | 51.10717 | 2.02145 | 29123 ft | 492 kts | 97° |
| 2026-05-06 19:41 | 51.10037 | 2.07446 | 29277 ft | 492 kts | 112° |
| 2026-05-06 19:41 | 51.08457 | 2.12300 | 29468 ft | 495 kts | 123° |
| 2026-05-06 19:41 | 51.06549 | 2.16799 | 29867 ft | 495 kts | 126° |
| 2026-05-06 19:41 | 51.04623 | 2.21363 | 30291 ft | 493 kts | 123° |
| 2026-05-06 19:42 | 51.02854 | 2.26028 | 30722 ft | 491 kts | 120° |
| 2026-05-06 19:42 | 51.01255 | 2.30821 | 31135 ft | 490 kts | 117° |
| 2026-05-06 19:42 | 50.99790 | 2.35702 | 31484 ft | 490 kts | 115° |
| 2026-05-06 19:42 | 50.98409 | 2.40641 | 31798 ft | 490 kts | 114° |
| 2026-05-06 19:43 | 50.97066 | 2.45618 | 32155 ft | 489 kts | 113° |
| 2026-05-06 19:43 | 50.95741 | 2.50577 | 32510 ft | 488 kts | 113° |
| 2026-05-06 19:43 | 50.94415 | 2.55519 | 32856 ft | 487 kts | 113° |
| 2026-05-06 19:43 | 50.93076 | 2.60464 | 33170 ft | 486 kts | 113° |
| 2026-05-06 19:44 | 50.91750 | 2.65316 | 33475 ft | 486 kts | 114° |
| 2026-05-06 19:44 | 50.90381 | 2.70284 | 33776 ft | 485 kts | 114° |
| 2026-05-06 19:44 | 50.89028 | 2.75169 | 34051 ft | 485 kts | 114° |
| 2026-05-06 19:44 | 50.87683 | 2.80005 | 34271 ft | 485 kts | 114° |
| 2026-05-06 19:45 | 50.86322 | 2.84883 | 34475 ft | 485 kts | 114° |
| 2026-05-06 19:45 | 50.84954 | 2.89780 | 34679 ft | 485 kts | 114° |
| 2026-05-06 19:45 | 50.83594 | 2.94640 | 34906 ft | 485 kts | 114° |
| 2026-05-06 19:45 | 50.82218 | 2.99549 | 34935 ft | 487 kts | 114° |
| 2026-05-06 19:46 | 50.79469 | 3.09326 | 34948 ft | 486 kts | 114° |
| 2026-05-06 19:46 | 50.76807 | 3.18760 | 34950 ft | 480 kts | 114° |
| 2026-05-06 19:47 | 50.74070 | 3.28419 | 34951 ft | 477 kts | 114° |
| 2026-05-06 19:47 | 50.71350 | 3.37976 | 34953 ft | 476 kts | 114° |
| 2026-05-06 19:48 | 50.68628 | 3.47506 | 34950 ft | 477 kts | 115° |
| 2026-05-06 19:48 | 50.65893 | 3.57039 | 34949 ft | 479 kts | 115° |
| 2026-05-06 19:49 | 50.63131 | 3.66631 | 34944 ft | 481 kts | 115° |
| 2026-05-06 19:49 | 50.60373 | 3.76168 | 34936 ft | 482 kts | 115° |
| 2026-05-06 19:50 | 50.57582 | 3.85784 | 34931 ft | 483 kts | 115° |
| 2026-05-06 19:50 | 50.54777 | 3.95408 | 34929 ft | 484 kts | 115° |
| 2026-05-06 19:51 | 50.51963 | 4.05022 | 34932 ft | 484 kts | 115° |
| 2026-05-06 19:51 | 50.49147 | 4.14608 | 34933 ft | 483 kts | 115° |
| 2026-05-06 19:52 | 50.46323 | 4.24181 | 34934 ft | 483 kts | 115° |
| 2026-05-06 19:52 | 50.43494 | 4.33733 | 34935 ft | 482 kts | 115° |
| 2026-05-06 19:53 | 50.40665 | 4.43249 | 34949 ft | 481 kts | 116° |
| 2026-05-06 19:53 | 50.37836 | 4.52725 | 34935 ft | 480 kts | 116° |
| 2026-05-06 19:54 | 50.35016 | 4.62137 | 34929 ft | 479 kts | 116° |
| 2026-05-06 19:54 | 50.32175 | 4.71579 | 34925 ft | 478 kts | 116° |
| 2026-05-06 19:55 | 50.29333 | 4.80989 | 34933 ft | 478 kts | 116° |
| 2026-05-06 19:55 | 50.26489 | 4.90371 | 34913 ft | 478 kts | 116° |
| 2026-05-06 19:56 | 50.23640 | 4.99731 | 34911 ft | 478 kts | 116° |
| 2026-05-06 19:56 | 50.20775 | 5.09110 | 34906 ft | 478 kts | 116° |
| 2026-05-06 19:57 | 50.17898 | 5.18489 | 34925 ft | 478 kts | 116° |
| 2026-05-06 19:57 | 50.15020 | 5.27839 | 34918 ft | 479 kts | 116° |
| 2026-05-06 19:58 | 50.12126 | 5.37204 | 34901 ft | 479 kts | 116° |
| 2026-05-06 19:58 | 50.09246 | 5.46487 | 34910 ft | 479 kts | 117° |
| 2026-05-06 19:59 | 50.06336 | 5.55833 | 34905 ft | 479 kts | 117° |
| 2026-05-06 19:59 | 50.03418 | 5.65170 | 34907 ft | 479 kts | 117° |
| 2026-05-06 20:00 | 50.00992 | 5.72903 | 34903 ft | 479 kts | 117° |
| 2026-05-06 20:00 | 49.98062 | 5.82215 | 34893 ft | 478 kts | 117° |
| 2026-05-06 20:01 | 49.95631 | 5.89913 | 34894 ft | 478 kts | 117° |
| 2026-05-06 20:01 | 49.93173 | 5.97670 | 34889 ft | 477 kts | 117° |
| 2026-05-06 20:02 | 49.90281 | 6.06768 | 34882 ft | 476 kts | 117° |
| 2026-05-06 20:02 | 49.87347 | 6.15966 | 34877 ft | 476 kts | 118° |
| 2026-05-06 20:03 | 49.84405 | 6.25154 | 34874 ft | 475 kts | 118° |
| 2026-05-06 20:03 | 49.81456 | 6.34329 | 34874 ft | 475 kts | 118° |
| 2026-05-06 20:04 | 49.78502 | 6.43484 | 34871 ft | 475 kts | 118° |
| 2026-05-06 20:04 | 49.75541 | 6.52631 | 34873 ft | 475 kts | 118° |
| 2026-05-06 20:05 | 49.72595 | 6.61697 | 34868 ft | 476 kts | 118° |
| 2026-05-06 20:05 | 49.69620 | 6.70818 | 34858 ft | 476 kts | 118° |
| 2026-05-06 20:06 | 49.66628 | 6.79958 | 34861 ft | 476 kts | 118° |
| 2026-05-06 20:06 | 49.63629 | 6.89088 | 34859 ft | 477 kts | 118° |
| 2026-05-06 20:07 | 49.60621 | 6.98215 | 34862 ft | 477 kts | 119° |
| 2026-05-06 20:07 | 49.57610 | 7.07312 | 34866 ft | 477 kts | 119° |
| 2026-05-06 20:08 | 49.54582 | 7.16433 | 34863 ft | 477 kts | 119° |
| 2026-05-06 20:08 | 49.51550 | 7.25528 | 34855 ft | 477 kts | 119° |
| 2026-05-06 20:09 | 49.48538 | 7.34532 | 34848 ft | 476 kts | 119° |
| 2026-05-06 20:09 | 49.45505 | 7.43572 | 34842 ft | 476 kts | 119° |
| 2026-05-06 20:10 | 49.42467 | 7.52591 | 34843 ft | 475 kts | 119° |
| 2026-05-06 20:10 | 49.39421 | 7.61600 | 34844 ft | 475 kts | 120° |
| 2026-05-06 20:11 | 49.36364 | 7.70609 | 34842 ft | 475 kts | 120° |
| 2026-05-06 20:11 | 49.33312 | 7.79574 | 34844 ft | 474 kts | 120° |
| 2026-05-06 20:12 | 49.30249 | 7.88540 | 34849 ft | 474 kts | 120° |
| 2026-05-06 20:12 | 49.27181 | 7.97492 | 34850 ft | 474 kts | 120° |
| 2026-05-06 20:13 | 49.24105 | 8.06430 | 34849 ft | 475 kts | 120° |
| 2026-05-06 20:13 | 49.21037 | 8.15317 | 34847 ft | 475 kts | 120° |
| 2026-05-06 20:14 | 49.17943 | 8.24248 | 34844 ft | 475 kts | 121° |
| 2026-05-06 20:14 | 49.14847 | 8.33154 | 34844 ft | 475 kts | 121° |
| 2026-05-06 20:15 | 49.11741 | 8.42057 | 34848 ft | 475 kts | 121° |
| 2026-05-06 20:15 | 49.08628 | 8.50951 | 34848 ft | 475 kts | 121° |
| 2026-05-06 20:16 | 49.05526 | 8.59780 | 34853 ft | 475 kts | 121° |
| 2026-05-06 20:16 | 49.02401 | 8.68648 | 34851 ft | 475 kts | 121° |
| 2026-05-06 20:17 | 48.99269 | 8.77504 | 34867 ft | 475 kts | 121° |
| 2026-05-06 20:17 | 48.96128 | 8.86356 | 34867 ft | 475 kts | 122° |
| 2026-05-06 20:18 | 48.92981 | 8.95193 | 34865 ft | 475 kts | 122° |
| 2026-05-06 20:18 | 48.89825 | 9.04025 | 34871 ft | 474 kts | 122° |
| 2026-05-06 20:19 | 48.86667 | 9.12834 | 34876 ft | 474 kts | 122° |
| 2026-05-06 20:19 | 48.83503 | 9.21629 | 34878 ft | 474 kts | 122° |
| 2026-05-06 20:20 | 48.80338 | 9.30400 | 34878 ft | 474 kts | 122° |
| 2026-05-06 20:20 | 48.77184 | 9.39108 | 34874 ft | 474 kts | 122° |
| 2026-05-06 20:21 | 48.74005 | 9.47858 | 34873 ft | 473 kts | 123° |
| 2026-05-06 20:21 | 48.70821 | 9.56597 | 34872 ft | 474 kts | 123° |
| 2026-05-06 20:22 | 48.67629 | 9.65328 | 34876 ft | 474 kts | 123° |
| 2026-05-06 20:22 | 48.64346 | 9.73961 | 34859 ft | 473 kts | 124° |
| 2026-05-06 20:23 | 48.60957 | 9.82497 | 34864 ft | 473 kts | 125° |
| 2026-05-06 20:23 | 48.57562 | 9.91029 | 34867 ft | 474 kts | 125° |
| 2026-05-06 20:24 | 48.54190 | 9.99531 | 34872 ft | 474 kts | 125° |
| 2026-05-06 20:24 | 48.50799 | 10.08081 | 34877 ft | 475 kts | 125° |
| 2026-05-06 20:25 | 48.47401 | 10.16624 | 34877 ft | 475 kts | 125° |
| 2026-05-06 20:25 | 48.43998 | 10.25152 | 34883 ft | 475 kts | 125° |
| 2026-05-06 20:26 | 48.42868 | 10.27977 | 34884 ft | 475 kts | 125° |